Time;durP1;ratioP1;P1;durP2;ratioP2;P2;SDS_P1;SDS_P2;PMS_P1;PMS_P2;Temp;Humidity;BMP_temperature;BMP_pressure;BME280_temperature;BME280_humidity;BME280_pressure;Samples;Min_cycle;Max_cycle;Signal;HPM_P1;HPM_P2
2022/03/05 00:01:12;;;;;;;13.17;6.13;;;;;;;;;;5015226;28;20248;-50
2022/03/05 00:03:39;;;;;;;11.90;7.33;;;;;;;;;;5015480;28;20227;-55
2022/03/05 00:06:06;;;;;;;14.93;7.40;;;;;;;;;;5014652;28;20653;-54
2022/03/05 00:08:33;;;;;;;12.93;7.33;;;;;;;;;;5015547;28;20667;-51
2022/03/05 00:11:00;;;;;;;14.70;8.33;;;;;;;;;;5015502;28;20236;-54
2022/03/05 00:13:28;;;;;;;16.47;7.30;;;;;;;;;;5015475;28;20612;-53
2022/03/05 00:15:55;;;;;;;10.40;6.17;;;;;;;;;;5015781;28;20296;-53
2022/03/05 00:18:23;;;;;;;11.37;7.30;;;;;;;;;;5014825;28;20238;-50
2022/03/05 00:20:51;;;;;;;12.47;7.73;;;;;;;;;;5015418;28;20210;-54
2022/03/05 00:23:19;;;;;;;14.70;7.60;;;;;;;;;;5015195;28;20229;-55
2022/03/05 00:25:46;;;;;;;13.40;8.17;;;;;;;;;;5014545;28;20292;-55
2022/03/05 00:28:14;;;;;;;14.23;8.73;;;;;;;;;;5014640;28;20225;-53
2022/03/05 00:30:41;;;;;;;14.77;9.10;;;;;;;;;;5015020;28;20210;-51
2022/03/05 00:33:08;;;;;;;15.53;9.27;;;;;;;;;;5015446;28;20607;-57
2022/03/05 00:35:35;;;;;;;20.23;10.10;;;;;;;;;;5015635;28;20221;-56
2022/03/05 00:38:04;;;;;;;12.77;8.47;;;;;;;;;;5020584;28;20326;-54
2022/03/05 00:40:31;;;;;;;14.27;9.00;;;;;;;;;;5034779;28;20231;-54
2022/03/05 00:42:58;;;;;;;13.80;8.60;;;;;;;;;;5034853;28;20236;-56
2022/03/05 00:45:25;;;;;;;14.27;8.90;;;;;;;;;;5034830;28;20204;-54
2022/03/05 00:47:52;;;;;;;16.50;8.93;;;;;;;;;;5034847;28;20558;-53
2022/03/05 00:50:19;;;;;;;14.70;8.43;;;;;;;;;;5034558;28;20200;-51
2022/03/05 00:52:46;;;;;;;13.33;8.17;;;;;;;;;;5034866;28;20256;-51
2022/03/05 00:55:14;;;;;;;16.50;7.60;;;;;;;;;;5035122;28;20209;-54
2022/03/05 00:57:41;;;;;;;12.83;7.47;;;;;;;;;;5034542;28;20209;-51
2022/03/05 01:00:10;;;;;;;9.97;6.73;;;;;;;;;;5034560;28;20228;-56
2022/03/05 01:02:39;;;;;;;12.73;8.10;;;;;;;;;;5034158;28;20193;-57
2022/03/05 01:05:09;;;;;;;11.20;7.60;;;;;;;;;;5034568;28;20197;-59
2022/03/05 01:07:37;;;;;;;11.57;7.10;;;;;;;;;;5034842;28;20212;-50
2022/03/05 01:10:05;;;;;;;12.30;6.83;;;;;;;;;;5034695;28;20200;-56
2022/03/05 01:12:34;;;;;;;11.27;6.93;;;;;;;;;;5034464;28;20681;-57
2022/03/05 01:15:02;;;;;;;15.23;7.23;;;;;;;;;;5034518;28;20212;-54
2022/03/05 01:17:29;;;;;;;12.43;6.33;;;;;;;;;;5015531;28;20569;-59
2022/03/05 01:19:56;;;;;;;11.53;6.50;;;;;;;;;;5017468;28;20204;-54
2022/03/05 01:22:23;;;;;;;10.23;6.57;;;;;;;;;;5018255;28;20240;-53
2022/03/05 01:24:50;;;;;;;12.67;7.97;;;;;;;;;;5018619;28;20718;-51
2022/03/05 01:27:18;;;;;;;12.00;6.73;;;;;;;;;;5018228;28;20292;-56
2022/03/05 01:29:45;;;;;;;10.80;7.43;;;;;;;;;;5017240;28;20813;-58
2022/03/05 01:32:12;;;;;;;13.40;8.00;;;;;;;;;;5018376;28;20320;-55
2022/03/05 01:34:40;;;;;;;14.27;7.50;;;;;;;;;;5018411;28;20225;-57
2022/03/05 01:37:07;;;;;;;12.43;6.83;;;;;;;;;;5018305;28;20260;-52
2022/03/05 01:39:34;;;;;;;11.63;7.77;;;;;;;;;;5018760;28;20581;-51
2022/03/05 01:42:02;;;;;;;13.37;7.70;;;;;;;;;;5018255;28;20687;-58
2022/03/05 01:44:29;;;;;;;11.63;6.57;;;;;;;;;;5018370;28;20221;-53
2022/03/05 01:47:01;;;;;;;11.30;7.00;;;;;;;;;;5018028;28;20307;-52
2022/03/05 01:49:32;;;;;;;11.37;7.30;;;;;;;;;;5018253;28;20634;-55
2022/03/05 01:51:59;;;;;;;12.40;7.67;;;;;;;;;;5017964;28;20539;-56
2022/03/05 01:54:26;;;;;;;11.90;6.67;;;;;;;;;;5018209;28;20655;-55
2022/03/05 01:56:54;;;;;;;10.30;6.50;;;;;;;;;;5018291;28;20513;-59
2022/03/05 01:59:21;;;;;;;9.90;6.70;;;;;;;;;;5018015;28;20701;-54
2022/03/05 02:01:49;;;;;;;13.70;6.90;;;;;;;;;;5018103;28;20296;-56
2022/03/05 02:04:17;;;;;;;9.87;5.90;;;;;;;;;;5018404;28;20572;-52
2022/03/05 02:06:44;;;;;;;11.03;7.13;;;;;;;;;;5017997;28;20212;-50
2022/03/05 02:09:11;;;;;;;9.17;6.50;;;;;;;;;;5018087;28;20218;-50
2022/03/05 02:11:38;;;;;;;12.13;6.77;;;;;;;;;;5017603;28;20678;-54
2022/03/05 02:14:06;;;;;;;10.70;6.57;;;;;;;;;;5017071;28;20678;-51
2022/03/05 02:16:33;;;;;;;12.43;6.83;;;;;;;;;;5017602;28;20205;-56
2022/03/05 02:19:00;;;;;;;10.40;6.70;;;;;;;;;;5017702;28;20249;-55
2022/03/05 02:21:27;;;;;;;10.83;6.23;;;;;;;;;;5017501;28;20212;-52
2022/03/05 02:23:55;;;;;;;12.30;7.40;;;;;;;;;;5017768;28;20240;-49
2022/03/05 02:26:22;;;;;;;10.33;6.97;;;;;;;;;;5017353;28;20232;-51
2022/03/05 02:28:50;;;;;;;12.53;7.17;;;;;;;;;;5016302;28;20256;-53
2022/03/05 02:31:17;;;;;;;11.40;7.40;;;;;;;;;;5017226;28;20236;-51
2022/03/05 02:33:45;;;;;;;14.60;6.90;;;;;;;;;;5017476;28;20221;-58
2022/03/05 02:36:12;;;;;;;11.97;8.00;;;;;;;;;;5017886;28;20596;-50
2022/03/05 02:38:39;;;;;;;11.40;8.10;;;;;;;;;;4999604;28;20583;-56
2022/03/05 02:41:06;;;;;;;12.20;7.70;;;;;;;;;;5017351;28;20205;-52
2022/03/05 02:43:33;;;;;;;12.83;8.37;;;;;;;;;;5017440;28;20236;-53
2022/03/05 02:46:01;;;;;;;16.10;8.70;;;;;;;;;;5017161;28;20533;-51
2022/03/05 02:48:28;;;;;;;13.83;8.03;;;;;;;;;;5017082;28;20229;-50
2022/03/05 02:50:55;;;;;;;11.13;7.80;;;;;;;;;;5017272;28;20229;-52
2022/03/05 02:53:22;;;;;;;12.37;8.43;;;;;;;;;;5015956;28;20260;-50
2022/03/05 02:55:49;;;;;;;12.40;7.83;;;;;;;;;;5017212;28;20215;-54
2022/03/05 02:58:16;;;;;;;12.40;8.10;;;;;;;;;;5017083;28;20204;-52
2022/03/05 03:00:44;;;;;;;12.60;7.70;;;;;;;;;;5017242;28;20225;-56
2022/03/05 03:03:11;;;;;;;12.00;7.30;;;;;;;;;;5016743;28;20256;-55
2022/03/05 03:05:39;;;;;;;12.63;7.37;;;;;;;;;;5016522;28;20205;-52
2022/03/05 03:08:06;;;;;;;11.17;7.83;;;;;;;;;;4995596;28;20221;-56
2022/03/05 03:10:33;;;;;;;12.73;8.23;;;;;;;;;;4995799;28;20229;-52
2022/03/05 03:13:00;;;;;;;12.53;8.33;;;;;;;;;;4996896;28;20730;-53
2022/03/05 03:15:27;;;;;;;13.97;7.87;;;;;;;;;;4996788;28;20551;-51
2022/03/05 03:17:55;;;;;;;13.30;8.17;;;;;;;;;;4996107;28;20202;-54
2022/03/05 03:20:25;;;;;;;12.93;6.90;;;;;;;;;;4996272;28;20277;-50
2022/03/05 03:22:53;;;;;;;13.80;7.30;;;;;;;;;;4996841;28;20218;-50
2022/03/05 03:25:20;;;;;;;12.10;7.50;;;;;;;;;;4997112;28;20232;-55
2022/03/05 03:27:48;;;;;;;12.67;8.33;;;;;;;;;;4996751;28;20213;-52
2022/03/05 03:30:16;;;;;;;14.53;8.30;;;;;;;;;;4996931;28;20214;-54
2022/03/05 03:32:45;;;;;;;13.53;7.93;;;;;;;;;;4996590;28;20325;-53
2022/03/05 03:35:14;;;;;;;15.47;7.93;;;;;;;;;;4996821;28;20261;-51
2022/03/05 03:37:41;;;;;;;10.43;7.20;;;;;;;;;;4996897;28;20565;-50
2022/03/05 03:40:10;;;;;;;11.27;7.03;;;;;;;;;;4996516;28;20202;-55
2022/03/05 03:42:37;;;;;;;12.90;7.30;;;;;;;;;;4996732;28;20241;-51
2022/03/05 03:45:05;;;;;;;9.90;7.10;;;;;;;;;;4996487;28;20214;-54
2022/03/05 03:47:33;;;;;;;12.57;7.47;;;;;;;;;;4996086;28;20244;-49
2022/03/05 03:50:01;;;;;;;11.90;7.07;;;;;;;;;;4996353;28;20699;-58
2022/03/05 03:52:28;;;;;;;12.57;7.63;;;;;;;;;;4996395;28;20234;-52
2022/03/05 03:54:55;;;;;;;12.30;8.00;;;;;;;;;;4996565;28;20225;-53
2022/03/05 03:57:23;;;;;;;11.93;7.23;;;;;;;;;;4996426;28;20556;-51
2022/03/05 03:59:51;;;;;;;14.33;7.07;;;;;;;;;;4996257;28;20213;-50
2022/03/05 04:02:19;;;;;;;10.43;6.90;;;;;;;;;;4996154;28;20635;-57
2022/03/05 04:04:48;;;;;;;11.67;6.87;;;;;;;;;;4996039;28;20210;-57
2022/03/05 04:10:04;;;;;;;10.03;5.87;;;;;;;;;;4996305;28;20593;-51
2022/03/05 04:12:32;;;;;;;11.17;6.33;;;;;;;;;;4996018;28;20277;-53
2022/03/05 04:14:59;;;;;;;9.73;6.10;;;;;;;;;;4995827;28;20217;-53
2022/03/05 04:17:26;;;;;;;8.83;5.97;;;;;;;;;;4995901;28;20245;-57
2022/03/05 04:19:53;;;;;;;12.43;6.10;;;;;;;;;;4996221;28;20198;-56
2022/03/05 04:22:20;;;;;;;8.17;5.33;;;;;;;;;;4995983;28;20664;-52
2022/03/05 04:24:48;;;;;;;12.00;6.10;;;;;;;;;;4995736;28;20217;-49
2022/03/05 04:27:15;;;;;;;8.70;5.57;;;;;;;;;;4995559;28;20229;-55
2022/03/05 04:29:42;;;;;;;8.90;5.43;;;;;;;;;;4996135;28;20285;-52
2022/03/05 04:32:09;;;;;;;11.57;5.67;;;;;;;;;;4995686;28;20269;-55
2022/03/05 04:34:36;;;;;;;7.23;4.27;;;;;;;;;;4995827;28;20587;-53
2022/03/05 04:37:05;;;;;;;7.20;5.03;;;;;;;;;;4995497;28;20206;-51
2022/03/05 04:39:33;;;;;;;8.13;5.37;;;;;;;;;;4995720;28;20263;-51
2022/03/05 04:42:00;;;;;;;8.77;5.13;;;;;;;;;;4995746;28;20232;-52
2022/03/05 04:44:27;;;;;;;9.40;5.77;;;;;;;;;;4995950;28;20289;-54
2022/03/05 04:46:55;;;;;;;11.53;5.50;;;;;;;;;;4995377;28;20261;-50
2022/03/05 04:49:22;;;;;;;9.27;5.30;;;;;;;;;;5010546;28;20584;-52
2022/03/05 04:51:49;;;;;;;10.10;5.30;;;;;;;;;;4994418;28;20681;-56
2022/03/05 04:54:17;;;;;;;10.07;4.90;;;;;;;;;;4995021;28;20293;-51
2022/03/05 04:56:44;;;;;;;8.83;5.63;;;;;;;;;;4995253;28;20206;-54
2022/03/05 04:59:11;;;;;;;10.37;4.53;;;;;;;;;;4994935;28;20235;-54
2022/03/05 05:01:38;;;;;;;8.70;4.93;;;;;;;;;;4994891;28;20230;-55
2022/03/05 05:04:06;;;;;;;5.83;4.40;;;;;;;;;;4994915;28;20640;-52
2022/03/05 05:06:33;;;;;;;7.10;4.37;;;;;;;;;;4995158;28;20289;-55
2022/03/05 05:09:01;;;;;;;7.40;5.20;;;;;;;;;;4994842;28;20240;-52
2022/03/05 05:11:28;;;;;;;8.97;5.70;;;;;;;;;;4994811;28;20202;-57
2022/03/05 05:13:55;;;;;;;9.00;5.77;;;;;;;;;;4994773;28;20230;-50
2022/03/05 05:16:22;;;;;;;7.67;4.73;;;;;;;;;;4994834;28;20229;-53
2022/03/05 05:21:35;;;;;;;15.93;8.10;;;;;;;;;;4994844;28;20206;-52
2022/03/05 05:24:03;;;;;;;21.90;10.03;;;;;;;;;;4994933;28;20210;-58
2022/03/05 05:26:30;;;;;;;14.13;7.37;;;;;;;;;;5004533;28;20221;-52
2022/03/05 05:28:57;;;;;;;9.10;5.67;;;;;;;;;;5013531;28;20706;-54
2022/03/05 05:31:24;;;;;;;5.63;3.43;;;;;;;;;;5013277;28;20229;-57
2022/03/05 05:33:52;;;;;;;9.67;4.47;;;;;;;;;;5013499;28;20724;-59
2022/03/05 05:36:19;;;;;;;5.07;3.83;;;;;;;;;;5013710;28;20233;-59
2022/03/05 05:38:46;;;;;;;5.70;4.47;;;;;;;;;;5013731;28;20256;-60
2022/03/05 05:41:15;;;;;;;7.93;4.73;;;;;;;;;;5012666;28;20260;-52
2022/03/05 05:43:42;;;;;;;7.73;5.03;;;;;;;;;;5013509;28;20248;-58
2022/03/05 05:46:10;;;;;;;10.63;5.20;;;;;;;;;;5013311;28;20299;-57
2022/03/05 05:48:53;;;;;;;7.40;4.93;;;;;;;;;;5014653;28;20232;-58
2022/03/05 05:51:20;;;;;;;6.97;4.57;;;;;;;;;;5021162;28;20308;-59
2022/03/05 05:53:54;;;;;;;7.43;4.57;;;;;;;;;;5021074;28;20224;-59
2022/03/05 05:56:21;;;;;;;7.43;4.77;;;;;;;;;;5021482;28;20307;-61
2022/03/05 05:58:49;;;;;;;8.47;4.30;;;;;;;;;;4987175;28;20220;-60
2022/03/05 06:01:17;;;;;;;7.70;4.80;;;;;;;;;;5017044;28;20283;-58
2022/03/05 06:03:45;;;;;;;9.90;4.67;;;;;;;;;;5023283;28;20631;-58
2022/03/05 06:06:12;;;;;;;8.80;4.53;;;;;;;;;;5026820;28;20311;-58
2022/03/05 06:08:40;;;;;;;8.60;4.70;;;;;;;;;;5025197;28;20237;-59
2022/03/05 06:11:07;;;;;;;11.83;5.60;;;;;;;;;;5025756;28;20344;-61
2022/03/05 06:13:34;;;;;;;14.27;6.27;;;;;;;;;;5027077;28;20595;-59
2022/03/05 06:16:01;;;;;;;9.03;5.00;;;;;;;;;;5022881;28;20617;-52
2022/03/05 06:18:29;;;;;;;8.30;4.43;;;;;;;;;;5021135;28;20232;-58
2022/03/05 06:20:56;;;;;;;10.37;4.90;;;;;;;;;;5026174;28;20252;-59
2022/03/05 06:23:23;;;;;;;8.07;5.00;;;;;;;;;;5024774;28;20225;-57
2022/03/05 06:25:51;;;;;;;14.87;5.77;;;;;;;;;;5022222;28;20753;-50
2022/03/05 06:28:18;;;;;;;12.90;5.60;;;;;;;;;;5028639;28;20311;-56
2022/03/05 06:30:46;;;;;;;15.10;5.43;;;;;;;;;;5023073;28;20300;-53
2022/03/05 06:33:13;;;;;;;10.13;4.20;;;;;;;;;;5029326;28;20264;-59
2022/03/05 06:35:40;;;;;;;7.40;3.47;;;;;;;;;;5015717;28;20249;-59
2022/03/05 06:38:07;;;;;;;22.20;6.97;;;;;;;;;;5024820;28;20719;-52
2022/03/05 06:40:35;;;;;;;28.57;10.00;;;;;;;;;;5024101;28;20247;-55
2022/03/05 06:43:02;;;;;;;31.73;8.97;;;;;;;;;;5021840;28;20720;-56
2022/03/05 06:45:29;;;;;;;15.53;5.00;;;;;;;;;;5016454;28;20245;-54
2022/03/05 06:47:56;;;;;;;19.00;7.30;;;;;;;;;;5016280;28;20287;-51
2022/03/05 06:50:24;;;;;;;7.27;4.07;;;;;;;;;;5016221;28;20233;-59
2022/03/05 06:52:51;;;;;;;6.70;3.90;;;;;;;;;;5016201;28;20245;-54
2022/03/05 06:55:24;;;;;;;7.03;3.77;;;;;;;;;;5015670;28;20228;-53
2022/03/05 06:57:52;;;;;;;8.53;4.10;;;;;;;;;;5016283;28;20295;-59
2022/03/05 07:00:20;;;;;;;5.30;3.63;;;;;;;;;;5015667;28;20260;-53
2022/03/05 07:02:48;;;;;;;5.37;3.13;;;;;;;;;;5016228;28;20217;-57
2022/03/05 07:05:16;;;;;;;5.33;3.07;;;;;;;;;;5016220;28;20596;-56
2022/03/05 07:07:43;;;;;;;6.47;3.53;;;;;;;;;;5015816;28;20241;-52
2022/03/05 07:10:10;;;;;;;7.17;3.90;;;;;;;;;;5015961;28;20241;-51
2022/03/05 07:12:37;;;;;;;6.57;3.40;;;;;;;;;;5015472;28;20237;-57
2022/03/05 07:15:06;;;;;;;5.27;3.87;;;;;;;;;;5015235;28;20260;-54
2022/03/05 07:17:33;;;;;;;5.77;3.37;;;;;;;;;;5015779;28;20574;-50
2022/03/05 07:20:01;;;;;;;4.57;3.20;;;;;;;;;;5014305;28;20228;-60
2022/03/05 07:34:50;;;;;;;10.33;4.67;;;;;;;;;;5106384;27;20828;-62
2022/03/05 07:37:18;;;;;;;5.63;3.23;;;;;;;;;;5109512;28;20679;-62
2022/03/05 07:39:44;;;;;;;5.33;3.33;;;;;;;;;;5106574;27;20312;-62
2022/03/05 07:42:12;;;;;;;10.63;6.03;;;;;;;;;;5108588;28;20248;-62
2022/03/05 07:44:39;;;;;;;7.77;4.50;;;;;;;;;;5109404;27;20674;-62
2022/03/05 07:47:07;;;;;;;10.67;5.90;;;;;;;;;;5109492;28;20237;-62
2022/03/05 07:49:34;;;;;;;15.60;8.07;;;;;;;;;;5109294;27;20633;-63
2022/03/05 07:52:02;;;;;;;30.47;13.30;;;;;;;;;;5109656;28;20750;-62
2022/03/05 07:54:29;;;;;;;12.83;6.07;;;;;;;;;;5108663;27;20249;-62
2022/03/05 07:56:56;;;;;;;9.20;6.23;;;;;;;;;;5109906;28;20256;-62
2022/03/05 07:59:23;;;;;;;13.60;4.70;;;;;;;;;;5107775;28;20278;-62
2022/03/05 08:01:50;;;;;;;7.50;3.93;;;;;;;;;;5108568;28;20324;-62
2022/03/05 08:04:18;;;;;;;5.60;3.00;;;;;;;;;;5107955;27;20244;-62
2022/03/05 08:06:45;;;;;;;6.00;4.20;;;;;;;;;;5107240;28;20306;-62
2022/03/05 08:09:12;;;;;;;6.33;4.60;;;;;;;;;;5107036;27;20257;-62
2022/03/05 08:11:39;;;;;;;5.77;3.70;;;;;;;;;;5109522;28;20304;-62
2022/03/05 08:14:06;;;;;;;10.23;5.87;;;;;;;;;;5109168;28;20226;-63
2022/03/05 08:16:33;;;;;;;12.43;6.77;;;;;;;;;;5110507;28;20230;-61
2022/03/05 08:19:01;;;;;;;6.47;3.40;;;;;;;;;;5109333;27;20237;-61
2022/03/05 08:21:28;;;;;;;8.90;4.07;;;;;;;;;;5110152;28;20607;-62
2022/03/05 08:23:56;;;;;;;6.73;3.77;;;;;;;;;;5109098;27;20242;-62
2022/03/05 08:26:23;;;;;;;4.87;4.00;;;;;;;;;;5106376;28;20795;-62
2022/03/05 08:28:51;;;;;;;6.07;3.17;;;;;;;;;;5108556;27;20678;-62
2022/03/05 08:31:18;;;;;;;10.20;3.70;;;;;;;;;;5108948;28;20224;-62
2022/03/05 08:33:46;;;;;;;9.23;2.70;;;;;;;;;;5107603;28;20700;-62
2022/03/05 08:36:13;;;;;;;7.13;2.87;;;;;;;;;;5096184;28;20260;-62
2022/03/05 08:38:40;;;;;;;4.37;3.00;;;;;;;;;;5096574;28;20225;-62
2022/03/05 08:41:07;;;;;;;6.13;3.43;;;;;;;;;;5096154;28;20289;-62
2022/03/05 08:43:35;;;;;;;5.43;3.60;;;;;;;;;;5095990;28;20288;-62
2022/03/05 08:46:04;;;;;;;6.23;3.57;;;;;;;;;;5095984;28;20198;-62
2022/03/05 08:48:31;;;;;;;9.23;3.73;;;;;;;;;;5094005;28;20647;-62
2022/03/05 08:50:58;;;;;;;7.43;3.70;;;;;;;;;;5095433;28;20209;-62
2022/03/05 08:53:26;;;;;;;8.40;3.50;;;;;;;;;;5092866;28;20264;-62
2022/03/05 08:55:53;;;;;;;5.53;3.30;;;;;;;;;;5093973;28;20548;-62
2022/03/05 08:58:20;;;;;;;8.87;4.23;;;;;;;;;;5095827;28;20210;-62
2022/03/05 09:00:48;;;;;;;14.93;5.20;;;;;;;;;;5095504;28;20197;-61
2022/03/05 09:03:16;;;;;;;9.93;4.53;;;;;;;;;;5095226;28;20254;-61
2022/03/05 09:05:45;;;;;;;5.17;3.57;;;;;;;;;;5092684;28;20260;-61
2022/03/05 09:08:14;;;;;;;8.57;3.70;;;;;;;;;;5092491;28;20621;-62
2022/03/05 09:10:41;;;;;;;9.70;5.17;;;;;;;;;;5095421;28;20557;-61
2022/03/05 09:13:08;;;;;;;4.60;2.67;;;;;;;;;;5095669;28;20222;-61
2022/03/05 09:15:35;;;;;;;4.90;2.90;;;;;;;;;;5095344;28;20294;-61
2022/03/05 09:18:03;;;;;;;6.00;3.30;;;;;;;;;;5092515;28;20228;-61
2022/03/05 09:20:31;;;;;;;5.77;3.53;;;;;;;;;;5095062;28;20199;-61
2022/03/05 09:22:58;;;;;;;5.40;2.97;;;;;;;;;;5094224;28;20709;-63
2022/03/05 09:25:25;;;;;;;6.83;3.70;;;;;;;;;;5094173;28;20675;-61
2022/03/05 09:27:53;;;;;;;6.13;3.43;;;;;;;;;;5094856;28;20248;-61
2022/03/05 09:30:20;;;;;;;7.07;3.73;;;;;;;;;;5095962;28;20536;-61
2022/03/05 09:32:48;;;;;;;15.00;4.73;;;;;;;;;;5095524;28;20261;-61
2022/03/05 09:35:15;;;;;;;6.10;3.53;;;;;;;;;;5095992;28;20199;-60
2022/03/05 09:37:42;;;;;;;20.83;8.20;;;;;;;;;;5094902;28;20202;-61
2022/03/05 09:40:10;;;;;;;24.73;9.27;;;;;;;;;;5092107;28;20191;-61
2022/03/05 09:42:45;;;;;;;11.50;5.40;;;;;;;;;;5094717;28;20286;-61
2022/03/05 09:45:13;;;;;;;10.30;4.30;;;;;;;;;;5092169;28;20515;-61
2022/03/05 09:47:42;;;;;;;15.90;5.93;;;;;;;;;;5094255;28;20186;-62
2022/03/05 09:50:10;;;;;;;4.43;3.10;;;;;;;;;;5092142;28;20206;-61
2022/03/05 09:52:37;;;;;;;10.67;4.20;;;;;;;;;;5094855;28;20208;-61
2022/03/05 09:55:06;;;;;;;6.83;3.40;;;;;;;;;;5095416;28;20238;-61
2022/03/05 09:57:33;;;;;;;8.07;3.63;;;;;;;;;;5094396;28;20662;-61
2022/03/05 10:00:01;;;;;;;5.53;3.67;;;;;;;;;;5093656;28;20206;-61
2022/03/05 10:02:30;;;;;;;8.47;3.73;;;;;;;;;;5091598;28;20520;-61
2022/03/05 10:05:13;;;;;;;6.27;3.40;;;;;;;;;;5094524;28;20545;-61
2022/03/05 10:08:07;;;;;;;6.43;3.57;;;;;;;;;;5093397;28;20211;-62
2022/03/05 10:10:52;;;;;;;5.77;3.33;;;;;;;;;;5092299;28;20179;-62
2022/03/05 10:13:21;;;;;;;5.03;3.10;;;;;;;;;;5093034;28;20213;-61
2022/03/05 10:15:51;;;;;;;6.10;3.10;;;;;;;;;;5093856;28;20191;-61
2022/03/05 10:18:26;;;;;;;9.10;3.93;;;;;;;;;;5091991;28;20489;-61
2022/03/05 10:20:53;;;;;;;9.63;4.23;;;;;;;;;;5082891;28;20302;-61
2022/03/05 10:23:21;;;;;;;4.70;2.90;;;;;;;;;;5085385;28;20269;-61
2022/03/05 10:25:55;;;;;;;8.00;3.97;;;;;;;;;;5082924;28;20256;-61
2022/03/05 10:28:27;;;;;;;4.63;3.00;;;;;;;;;;5094814;28;20230;-61
2022/03/05 10:31:02;;;;;;;12.00;4.83;;;;;;;;;;5094207;28;20272;-61
2022/03/05 10:33:33;;;;;;;15.83;5.90;;;;;;;;;;5091914;28;20240;-61
2022/03/05 10:36:04;;;;;;;15.60;6.23;;;;;;;;;;5093591;28;20280;-61
2022/03/05 10:38:48;;;;;;;8.27;3.53;;;;;;;;;;5094634;28;20227;-61
2022/03/05 10:41:22;;;;;;;11.83;4.83;;;;;;;;;;5093107;28;20664;-61
2022/03/05 10:44:11;;;;;;;16.53;4.93;;;;;;;;;;5094539;28;20234;-61
2022/03/05 10:46:54;;;;;;;9.60;3.90;;;;;;;;;;5094816;27;20523;-61
2022/03/05 10:49:24;;;;;;;9.83;3.90;;;;;;;;;;5114538;28;20232;-62
2022/03/05 10:52:05;;;;;;;7.50;4.00;;;;;;;;;;5086007;27;20722;-61
2022/03/05 10:54:40;;;;;;;5.87;3.40;;;;;;;;;;5094165;28;20226;-62
2022/03/05 10:57:22;;;;;;;6.27;4.17;;;;;;;;;;5093740;27;20549;-62
2022/03/05 10:59:51;;;;;;;6.70;4.17;;;;;;;;;;5082235;28;20222;-62
2022/03/05 11:02:20;;;;;;;6.60;3.50;;;;;;;;;;5073324;28;20231;-61
2022/03/05 11:04:48;;;;;;;9.03;4.00;;;;;;;;;;5073798;28;20557;-62
2022/03/05 11:07:17;;;;;;;5.63;3.30;;;;;;;;;;5085583;28;20223;-62
2022/03/05 11:09:45;;;;;;;3.70;2.80;;;;;;;;;;5092245;28;20210;-62
2022/03/05 11:12:17;;;;;;;5.90;3.33;;;;;;;;;;5092623;28;20701;-62
2022/03/05 11:14:49;;;;;;;5.50;3.47;;;;;;;;;;5088760;28;20293;-61
2022/03/05 11:17:17;;;;;;;7.30;3.40;;;;;;;;;;5093311;28;20542;-62
2022/03/05 11:19:45;;;;;;;5.13;3.37;;;;;;;;;;5093044;28;20654;-62
2022/03/05 11:22:14;;;;;;;17.37;7.43;;;;;;;;;;5090706;28;20655;-62
2022/03/05 11:24:44;;;;;;;6.17;3.53;;;;;;;;;;5089532;28;20673;-62
2022/03/05 11:27:13;;;;;;;4.70;2.87;;;;;;;;;;5093107;28;20206;-62
2022/03/05 11:30:00;;;;;;;8.70;3.20;;;;;;;;;;5091133;28;20260;-62
2022/03/05 11:32:30;;;;;;;6.60;3.07;;;;;;;;;;5090916;28;20233;-61
2022/03/05 11:34:57;;;;;;;4.43;2.93;;;;;;;;;;5093284;28;20301;-62
2022/03/05 11:37:36;;;;;;;13.20;5.70;;;;;;;;;;5093062;28;20224;-63
2022/03/05 11:40:06;;;;;;;6.47;3.40;;;;;;;;;;5091559;28;20572;-62
2022/03/05 11:42:36;;;;;;;182.47;72.60;;;;;;;;;;5093095;28;20187;-62
2022/03/05 11:45:27;;;;;;;8.83;5.67;;;;;;;;;;5092947;28;20241;-62
2022/03/05 11:48:23;;;;;;;5.20;2.50;;;;;;;;;;5090676;28;20531;-62
2022/03/05 11:50:52;;;;;;;4.90;2.60;;;;;;;;;;5092141;28;20206;-61
2022/03/05 11:53:19;;;;;;;5.00;2.53;;;;;;;;;;5092587;28;20229;-61
2022/03/05 11:55:47;;;;;;;5.00;3.03;;;;;;;;;;5094325;28;20211;-60
2022/03/05 11:58:14;;;;;;;5.93;2.60;;;;;;;;;;5085750;28;20233;-61
2022/03/05 12:00:44;;;;;;;4.07;2.73;;;;;;;;;;5093233;28;20245;-61
2022/03/05 12:03:21;;;;;;;5.07;2.70;;;;;;;;;;5093269;28;20339;-61
2022/03/05 12:05:48;;;;;;;9.83;4.53;;;;;;;;;;5093190;28;20249;-60
2022/03/05 12:08:21;;;;;;;4.90;2.67;;;;;;;;;;5093041;28;20675;-59
2022/03/05 12:11:06;;;;;;;6.97;4.27;;;;;;;;;;5095513;28;20276;-60
2022/03/05 12:13:42;;;;;;;5.40;2.87;;;;;;;;;;5090122;28;20230;-59
2022/03/05 12:16:17;;;;;;;5.90;3.47;;;;;;;;;;5085253;28;20241;-59
2022/03/05 12:18:45;;;;;;;11.77;7.33;;;;;;;;;;5096228;27;20296;-60
2022/03/05 12:21:13;;;;;;;62.40;18.83;;;;;;;;;;5094520;28;20217;-61
2022/03/05 12:23:40;;;;;;;24.97;9.17;;;;;;;;;;5094642;28;20250;-62
2022/03/05 12:26:08;;;;;;;12.20;4.80;;;;;;;;;;5097065;28;20242;-62
2022/03/05 12:28:42;;;;;;;4.93;2.60;;;;;;;;;;5096085;28;20250;-62
2022/03/05 12:31:19;;;;;;;5.80;3.00;;;;;;;;;;5096170;28;20279;-62
2022/03/05 12:33:47;;;;;;;3.67;2.50;;;;;;;;;;5095520;28;20264;-62
2022/03/05 12:36:21;;;;;;;159.53;54.60;;;;;;;;;;5078116;28;20249;-61
2022/03/05 12:38:59;;;;;;;40.30;13.80;;;;;;;;;;5093964;27;20248;-62
2022/03/05 12:41:27;;;;;;;193.37;61.70;;;;;;;;;;5094354;28;20190;-62
2022/03/05 12:43:56;;;;;;;6.07;3.40;;;;;;;;;;5095868;28;20246;-62
2022/03/05 12:46:24;;;;;;;6.53;3.13;;;;;;;;;;5094425;28;20286;-62
2022/03/05 12:48:51;;;;;;;4.50;2.23;;;;;;;;;;5093511;28;20238;-62
2022/03/05 12:51:22;;;;;;;3.83;2.13;;;;;;;;;;5092965;28;20226;-62
2022/03/05 12:54:08;;;;;;;85.87;29.17;;;;;;;;;;5093971;28;20191;-62
2022/03/05 12:56:37;;;;;;;7.10;3.73;;;;;;;;;;5093709;28;20214;-62
2022/03/05 12:59:06;;;;;;;3.40;2.10;;;;;;;;;;5096059;28;20212;-62
2022/03/05 13:01:33;;;;;;;5.90;4.13;;;;;;;;;;5096014;28;20195;-62
2022/03/05 13:04:00;;;;;;;9.00;2.90;;;;;;;;;;5095521;28;20258;-63
2022/03/05 13:06:27;;;;;;;25.97;10.07;;;;;;;;;;5095773;28;20290;-62
2022/03/05 13:08:55;;;;;;;33.37;12.53;;;;;;;;;;5095942;28;20241;-61
2022/03/05 13:11:36;;;;;;;8.37;3.10;;;;;;;;;;5088483;28;20218;-61
2022/03/05 13:14:04;;;;;;;9.63;4.93;;;;;;;;;;5094361;28;20214;-61
2022/03/05 13:16:41;;;;;;;4.90;2.97;;;;;;;;;;5093700;27;20215;-61
2022/03/05 13:19:12;;;;;;;11.70;5.40;;;;;;;;;;5095881;28;20253;-62
2022/03/05 13:21:44;;;;;;;6.70;3.17;;;;;;;;;;5093387;28;20237;-62
2022/03/05 13:24:13;;;;;;;8.37;3.00;;;;;;;;;;5093587;28;20226;-62
2022/03/05 13:26:44;;;;;;;4.77;2.93;;;;;;;;;;5089600;27;20219;-62
2022/03/05 13:29:12;;;;;;;5.30;2.77;;;;;;;;;;5094005;28;20250;-64
2022/03/05 13:31:39;;;;;;;3.97;2.30;;;;;;;;;;5093907;28;20250;-64
2022/03/05 13:34:07;;;;;;;4.27;2.63;;;;;;;;;;5094172;28;20646;-64
2022/03/05 13:36:38;;;;;;;3.87;2.97;;;;;;;;;;5093462;28;20230;-63
2022/03/05 13:39:13;;;;;;;7.33;3.77;;;;;;;;;;5093777;28;20226;-63
2022/03/05 13:41:46;;;;;;;8.77;4.00;;;;;;;;;;5092494;28;20620;-62
2022/03/05 13:44:20;;;;;;;8.87;3.60;;;;;;;;;;5094058;28;20309;-62
2022/03/05 13:46:50;;;;;;;7.13;3.40;;;;;;;;;;5091115;27;20264;-63
2022/03/05 13:49:18;;;;;;;10.97;5.60;;;;;;;;;;5095455;28;20310;-64
2022/03/05 13:51:51;;;;;;;6.17;3.50;;;;;;;;;;5092882;27;20560;-62
2022/03/05 13:54:39;;;;;;;8.60;4.17;;;;;;;;;;5093431;28;20232;-63
2022/03/05 13:57:25;;;;;;;10.83;5.10;;;;;;;;;;5090604;27;20270;-63
2022/03/05 13:59:52;;;;;;;18.23;6.00;;;;;;;;;;5091515;28;20214;-63
2022/03/05 14:02:19;;;;;;;5.33;2.90;;;;;;;;;;5089404;28;20321;-64
2022/03/05 14:04:57;;;;;;;5.07;2.73;;;;;;;;;;5093548;28;20231;-63
2022/03/05 14:07:25;;;;;;;5.20;2.20;;;;;;;;;;5091391;27;20644;-62
2022/03/05 14:09:55;;;;;;;3.73;2.40;;;;;;;;;;5093681;28;20219;-63
2022/03/05 14:12:26;;;;;;;6.07;2.37;;;;;;;;;;5090552;28;20264;-63
2022/03/05 14:15:00;;;;;;;4.23;2.50;;;;;;;;;;5093494;28;20223;-62
2022/03/05 14:17:30;;;;;;;6.47;3.00;;;;;;;;;;5091432;27;20225;-64
2022/03/05 14:20:16;;;;;;;3.30;2.50;;;;;;;;;;5093611;28;20227;-64
2022/03/05 14:23:03;;;;;;;4.27;2.60;;;;;;;;;;5091979;28;20272;-61
2022/03/05 14:25:40;;;;;;;6.13;2.70;;;;;;;;;;5092616;28;20667;-61
2022/03/05 14:28:16;;;;;;;3.67;2.57;;;;;;;;;;5091608;28;20250;-60
2022/03/05 14:30:44;;;;;;;4.73;2.43;;;;;;;;;;5091575;28;20670;-61
2022/03/05 14:33:12;;;;;;;6.33;2.70;;;;;;;;;;5092360;27;20748;-59
2022/03/05 14:35:40;;;;;;;4.33;2.40;;;;;;;;;;5093344;28;20241;-62
2022/03/05 14:38:08;;;;;;;4.33;2.80;;;;;;;;;;5092839;28;20229;-62
2022/03/05 14:40:37;;;;;;;5.60;2.43;;;;;;;;;;5091550;28;20690;-62
2022/03/05 14:43:06;;;;;;;3.40;2.80;;;;;;;;;;5092161;27;20229;-62
2022/03/05 14:45:34;;;;;;;5.80;3.27;;;;;;;;;;5093126;28;20236;-62
2022/03/05 14:48:06;;;;;;;3.53;2.40;;;;;;;;;;5093985;27;20265;-62
2022/03/05 14:50:34;;;;;;;4.63;3.30;;;;;;;;;;5093958;28;20666;-62
2022/03/05 14:53:02;;;;;;;4.93;2.60;;;;;;;;;;5073984;28;20320;-62
2022/03/05 14:55:30;;;;;;;4.80;2.93;;;;;;;;;;5075321;28;20223;-62
2022/03/05 14:58:10;;;;;;;6.50;3.40;;;;;;;;;;5094058;28;20229;-63
2022/03/05 15:00:38;;;;;;;6.97;3.60;;;;;;;;;;5094152;28;20225;-62
2022/03/05 15:03:08;;;;;;;7.30;3.80;;;;;;;;;;5093771;28;20667;-62
2022/03/05 15:05:36;;;;;;;7.40;3.67;;;;;;;;;;5093749;28;20241;-62